createdAt,value
2023-03-14T00:03:45.508Z,59.82
2023-03-14T00:08:47.899Z,59.84
2023-03-14T00:14:08.758Z,59.53
2023-03-14T00:19:29.609Z,59.13
2023-03-14T00:24:51.399Z,59.83
2023-03-14T00:30:12.148Z,59.33
2023-03-14T00:35:32.571Z,58.91
2023-03-14T00:40:53.808Z,60.10
2023-03-14T00:46:14.540Z,59.63
2023-03-14T00:51:37.593Z,59.28
2023-03-14T00:56:39.692Z,59.14
2023-03-14T01:01:43.057Z,59.17
2023-03-14T01:06:46.069Z,59.70
2023-03-14T01:11:48.217Z,60.27
2023-03-14T01:16:50.360Z,60.27
2023-03-14T01:22:10.790Z,61.21
2023-03-14T01:27:32.213Z,61.77
2023-03-14T01:32:34.298Z,63.08
2023-03-14T01:37:36.430Z,64.25
2023-03-14T01:42:45.227Z,65.37
2023-03-14T01:47:47.402Z,65.27
2023-03-14T01:52:51.018Z,66.35
2023-03-14T01:58:01.979Z,66.51
2023-03-14T02:03:11.139Z,66.55
2023-03-14T02:08:16.429Z,67.42
2023-03-14T02:13:31.850Z,68.14
2023-03-14T02:18:53.266Z,67.99
2023-03-14T02:24:19.946Z,68.52
2023-03-14T02:29:29.439Z,68.52
2023-03-14T02:34:32.893Z,69.27
2023-03-14T02:39:43.896Z,69.13
2023-03-14T02:45:01.063Z,69.78
2023-03-14T02:50:10.665Z,70.28
2023-03-14T02:55:12.921Z,70.33
2023-03-14T03:00:18.376Z,69.91
2023-03-14T03:05:20.677Z,70.84
2023-03-14T03:10:22.820Z,70.72
2023-03-14T03:15:25.396Z,70.96
2023-03-14T03:20:27.854Z,71.18
2023-03-14T03:25:30.184Z,70.59
2023-03-14T03:30:32.566Z,71.25
2023-03-14T03:35:35.011Z,71.63
2023-03-14T03:40:37.599Z,70.96
2023-03-14T03:45:40.494Z,71.51
2023-03-14T03:50:47.271Z,71.26
2023-03-14T03:55:52.209Z,70.99
2023-03-14T04:00:55.556Z,71.36
2023-03-14T04:06:07.554Z,71.21
2023-03-14T04:11:12.371Z,71.29
2023-03-14T04:16:40.769Z,72.05
2023-03-14T04:21:50.232Z,72.22
2023-03-14T04:26:53.437Z,72.60
2023-03-14T04:31:55.647Z,72.54
2023-03-14T04:36:58.060Z,72.72
2023-03-14T04:42:10.398Z,72.82
2023-03-14T04:47:13.901Z,73.03
2023-03-14T04:52:17.518Z,73.10
2023-03-14T04:57:20.387Z,73.23
2023-03-14T05:02:23.556Z,73.33
2023-03-14T05:07:54.970Z,73.20
2023-03-14T05:13:15.626Z,74.08
2023-03-14T05:18:36.562Z,73.56
2023-03-14T05:23:59.527Z,73.82
2023-03-14T05:29:27.788Z,73.05
2023-03-14T05:34:59.315Z,73.50
2023-03-14T05:40:27.382Z,73.78
2023-03-14T05:45:38.361Z,72.72
2023-03-14T05:51:03.225Z,72.49
2023-03-14T05:56:19.906Z,72.10
2023-03-14T06:01:42.334Z,71.61
2023-03-14T06:06:54.672Z,70.87
2023-03-14T06:11:57.478Z,70.80
2023-03-14T06:17:00.290Z,70.56
2023-03-14T06:22:05.351Z,69.68
2023-03-14T06:27:10.061Z,69.84
2023-03-14T06:32:12.405Z,68.82
2023-03-14T06:37:14.735Z,68.31
2023-03-14T06:42:17.299Z,69.68
2023-03-14T06:47:20.863Z,67.90
2023-03-14T06:52:23.081Z,67.84
2023-03-14T06:57:25.275Z,68.36
2023-03-14T07:02:41.899Z,68.10
2023-03-14T07:07:53.865Z,67.57
2023-03-14T07:12:56.059Z,66.41
2023-03-14T07:18:01.368Z,66.52
2023-03-14T07:23:04.443Z,65.77
2023-03-14T07:28:13.226Z,65.09
2023-03-14T07:33:17.923Z,65.12
2023-03-14T07:38:22.684Z,64.17
2023-03-14T07:43:45.179Z,64.44
2023-03-14T07:48:47.262Z,64.23
2023-03-14T07:53:49.408Z,64.53
2023-03-14T07:58:51.602Z,63.71
2023-03-14T08:03:53.920Z,63.75
2023-03-14T08:08:56.178Z,63.14
2023-03-14T08:13:58.338Z,62.68
2023-03-14T08:19:00.558Z,63.13
2023-03-14T08:24:02.820Z,62.87
2023-03-14T08:29:05.655Z,62.87
2023-03-14T08:34:08.152Z,62.79
2023-03-14T08:39:10.504Z,64.09
2023-03-14T08:44:12.911Z,64.04
2023-03-14T08:49:16.083Z,64.11
2023-03-14T08:54:20.289Z,63.90
2023-03-14T08:59:22.677Z,63.44
2023-03-14T09:04:24.853Z,61.75
2023-03-14T09:09:31.342Z,61.03
2023-03-14T09:14:33.538Z,61.62
2023-03-14T09:19:36.066Z,60.33
2023-03-14T09:24:38.326Z,59.70
2023-03-14T09:29:40.537Z,58.33
2023-03-14T09:34:42.821Z,57.53
2023-03-14T09:39:44.952Z,57.96
2023-03-14T09:45:07.080Z,57.93
2023-03-14T09:50:16.894Z,57.56
2023-03-14T09:55:23.425Z,57.59
2023-03-14T10:00:29.546Z,55.92
2023-03-14T10:05:31.819Z,56.27
2023-03-14T10:10:34.158Z,55.92
2023-03-14T10:15:36.911Z,56.79
2023-03-14T10:20:44.812Z,57.59
2023-03-14T10:26:01.595Z,59.91
2023-03-14T10:31:03.907Z,60.13
2023-03-14T10:36:27.382Z,60.54
2023-03-14T10:41:34.670Z,60.79
2023-03-14T10:46:36.946Z,60.73
2023-03-14T10:52:03.190Z,60.92
2023-03-14T10:57:07.338Z,60.32
2023-03-14T11:02:21.347Z,59.11
2023-03-14T11:07:23.399Z,57.70
2023-03-14T11:12:49.241Z,58.92
2023-03-14T11:18:16.020Z,56.84
2023-03-14T11:23:29.207Z,55.82
2023-03-14T11:28:41.398Z,55.35
2023-03-14T11:33:56.080Z,54.95
2023-03-14T11:39:00.327Z,53.92
2023-03-14T11:44:11.430Z,53.74
2023-03-14T11:49:23.370Z,53.24
2023-03-14T11:54:50.857Z,54.87
2023-03-14T12:00:14.250Z,54.72
2023-03-14T12:05:37.933Z,55.25
2023-03-14T12:10:52.112Z,52.51
2023-03-14T12:16:00.322Z,51.35
2023-03-14T12:21:05.865Z,51.74
2023-03-14T12:26:13.889Z,51.04
2023-03-14T12:31:31.382Z,51.21
2023-03-14T12:36:49.742Z,50.52
2023-03-14T12:42:05.356Z,50.97
2023-03-14T12:47:19.756Z,51.51
2023-03-14T12:52:33.060Z,52.51
2023-03-14T12:57:41.522Z,54.35
2023-03-14T13:02:45.065Z,57.41
2023-03-14T13:07:50.231Z,58.35
2023-03-14T13:13:19.876Z,57.50
2023-03-14T13:18:40.420Z,57.48
2023-03-14T13:23:59.430Z,55.98
2023-03-14T13:29:09.248Z,53.93
2023-03-14T13:34:13.139Z,53.29
2023-03-14T13:39:20.657Z,52.21
2023-03-14T13:44:39.625Z,51.96
2023-03-14T13:49:42.344Z,51.34
2023-03-14T13:54:44.496Z,49.99
2023-03-14T14:00:07.294Z,50.87
2023-03-14T14:05:13.483Z,49.77
2023-03-14T14:10:16.043Z,48.17
2023-03-14T14:15:28.308Z,48.56
2023-03-14T14:20:40.983Z,48.50
2023-03-14T14:25:45.125Z,47.36
2023-03-14T14:30:48.370Z,48.56
2023-03-14T14:35:57.200Z,47.90
2023-03-14T14:41:04.079Z,48.11
2023-03-14T14:46:09.473Z,47.82
2023-03-14T14:51:11.648Z,47.64
2023-03-14T14:56:30.364Z,47.27
2023-03-14T15:01:40.526Z,47.07
2023-03-14T15:06:49.113Z,47.63
2023-03-14T15:11:51.434Z,47.65
2023-03-14T15:16:53.559Z,47.01
2023-03-14T15:21:55.727Z,47.56
2023-03-14T15:26:57.894Z,48.10
2023-03-14T15:32:00.174Z,48.14
2023-03-14T15:37:08.090Z,47.62
2023-03-14T15:42:10.362Z,47.44
2023-03-14T15:47:12.644Z,47.52
2023-03-14T15:52:14.739Z,48.10
2023-03-14T15:57:16.827Z,47.47
2023-03-14T16:02:18.973Z,47.32
2023-03-14T16:07:21.059Z,47.41
2023-03-14T16:12:23.272Z,47.99
2023-03-14T16:17:25.592Z,47.63
2023-03-14T16:22:28.020Z,47.25
2023-03-14T16:27:31.668Z,46.89
2023-03-14T16:32:33.883Z,47.89
2023-03-14T16:37:36.044Z,47.22
2023-03-14T16:42:46.837Z,47.33
2023-03-14T16:47:57.219Z,46.75
2023-03-14T16:52:59.338Z,46.76
2023-03-14T16:58:01.509Z,46.66
2023-03-14T17:03:04.981Z,46.38
2023-03-14T17:08:07.103Z,46.68
2023-03-14T17:13:10.581Z,46.59
2023-03-14T17:18:12.779Z,46.26
2023-03-14T17:23:16.339Z,47.01
2023-03-14T17:28:20.192Z,46.17
2023-03-14T17:33:22.281Z,46.22
2023-03-14T17:38:24.567Z,46.38
2023-03-14T17:43:26.894Z,46.21
2023-03-14T17:48:29.125Z,45.98
2023-03-14T17:53:32.304Z,45.78
2023-03-14T17:58:36.817Z,46.24
2023-03-14T18:03:39.049Z,46.39
2023-03-14T18:08:44.713Z,46.22
2023-03-14T18:13:47.809Z,46.21
2023-03-14T18:18:50.588Z,45.63
2023-03-14T18:23:52.645Z,45.93
2023-03-14T18:28:55.392Z,45.86
2023-03-14T18:33:57.910Z,46.02
2023-03-14T18:39:00.694Z,45.92
2023-03-14T18:44:04.258Z,45.48
2023-03-14T18:49:06.400Z,45.56
2023-03-14T18:54:11.553Z,46.00
2023-03-14T18:59:13.925Z,45.61
2023-03-14T19:04:16.029Z,45.46
2023-03-14T19:09:18.290Z,45.03
2023-03-14T19:14:20.955Z,45.27
2023-03-14T19:19:23.054Z,45.30
2023-03-14T19:24:25.139Z,44.93
2023-03-14T19:29:27.236Z,44.67
2023-03-14T19:34:30.047Z,43.94
2023-03-14T19:39:32.208Z,44.24
2023-03-14T19:44:34.409Z,44.25
2023-03-14T19:49:36.601Z,44.07
2023-03-14T19:54:38.739Z,44.15
2023-03-14T19:59:40.865Z,43.60
2023-03-14T20:04:44.510Z,43.93
2023-03-14T20:09:46.695Z,43.94
2023-03-14T20:14:48.758Z,43.86
2023-03-14T20:19:50.829Z,44.00
2023-03-14T20:24:52.905Z,43.89
2023-03-14T20:29:58.404Z,43.76
2023-03-14T20:35:01.993Z,43.63
2023-03-14T20:40:11.449Z,44.02
2023-03-14T20:45:14.907Z,43.65
2023-03-14T20:50:17.598Z,43.13
2023-03-14T20:55:19.665Z,43.65
2023-03-14T21:00:22.976Z,43.22
2023-03-14T21:05:25.226Z,43.51
2023-03-14T21:10:27.416Z,42.81
2023-03-14T21:15:29.609Z,43.37
2023-03-14T21:20:33.458Z,42.88
2023-03-14T21:25:36.186Z,43.38
2023-03-14T21:30:38.377Z,42.76
2023-03-14T21:35:40.623Z,42.99
2023-03-14T21:40:42.784Z,42.34
2023-03-14T21:45:45.003Z,42.00
2023-03-14T21:50:47.453Z,42.29
2023-03-14T21:55:49.579Z,41.94
2023-03-14T22:00:52.075Z,42.10
2023-03-14T22:05:54.197Z,42.11
2023-03-14T22:10:57.117Z,41.92
2023-03-14T22:15:59.342Z,41.61
2023-03-14T22:21:01.587Z,41.94
2023-03-14T22:26:03.919Z,41.19
2023-03-14T22:31:06.177Z,41.60
2023-03-14T22:36:10.091Z,41.38
2023-03-14T22:41:12.257Z,41.68
2023-03-14T22:46:14.457Z,42.12
2023-03-14T22:51:17.093Z,42.19
2023-03-14T22:56:19.296Z,42.00
2023-03-14T23:01:21.439Z,42.36
2023-03-14T23:06:23.627Z,41.97
2023-03-14T23:11:28.487Z,42.67
2023-03-14T23:16:39.847Z,42.53
2023-03-14T23:21:42.593Z,43.07
2023-03-14T23:26:46.267Z,42.73
2023-03-14T23:31:48.351Z,43.34
2023-03-14T23:36:50.428Z,42.79
2023-03-14T23:41:52.524Z,43.19
2023-03-14T23:46:54.803Z,43.35
2023-03-14T23:51:57.066Z,43.50
2023-03-14T23:56:59.272Z,43.07
